Belize City, Belize
Current Conditions -  °F | °C
As of 6:00 AM on Monday 26 Jan 2015 (Local Time) from MZBZ Reporting Station
Broken Clouds Broken Clouds  
Wind Chill: 20°   Ceiling: 4700
Heat Index: 20°   Visibility: 6mi
Dew Point: 15°   Wind: 12mph
Humidity: 73%   Direction: 330°NNW
Pressure: 30.13"   Gusts: NA
Location:  17.5°N, 88.19°W
Report Text: MZBZ 261200Z 33010KT 9999 FEW016 BKN047 20/15 A3013 Q1020 NOSIG
Loading
Personal Weather Stations






























Interactive Weather Map New forecast layout! Learn more

10-Day Weather Forecast

Advertisements
Track Severe Weather on mobile